Accueil
METAR-TAF:

METAR-TAF

Aéroports :

Aéroport de Milan-Linate

Milan, Italie

latitude: 45-26N, longitude: 009-17E, altitude: 107 m

Observation

Le bulletin a été fait il y a 41 minutes, à 00:20 UTC
Vent 11 kt de ouest
Température 15°C
Humidité 67%
Pression 1015 hPa
Visibilité 10 km ou plus
pas de nuages en-dessous de 1500 mètres et pas de cumulonimbus.

METAR: LIML 240020Z 28011KT CAVOK 15/09 Q1015 NOSIG

Heure: 03:01 (01:01 UTC)

Prévision

Le bulletin a été fait il y a 2 heures et 1 minutes, à 23:00 UTC
Prévision valable du 24 à 00 UTC au 24 à 24 UTC
Vent 8 kt de ouest
Visibilité 10 km ou plus
pas de nuages en-dessous de 1500 mètres et pas de cumulonimbus.
Temporairement
du 24 à 09 UTC au 24 à 18 UTC
Vent 15 kt de ouest avec des rafales jusqu'à 30 kt

TAF: LIML 232300Z 2400/2424 28008KT CAVOK TEMPO 2409/2418 28015G30KT

Observations et prévisions météorologiques de plus de 4000 aéroports (messages METAR et TAF).

Les stations disponibles sont représentées par des disques jaunes et rouges sur la carte.

Passer la souris dessus pour voir le nom de la station.

Cliquer dessus pour voir les observations et prévisions météorologiques.

Pour changer de carte: cliquez sur les boutons verts avec une croix noire pour zoomer, sur le bouton vert avec un tiret pour effectuer un zoom arrière, ou sur les flèches vertes pour les cartes adjacentes.


METAR-TAF: